createdAt,value
2023-04-14T00:02:06.741Z,95285.88
2023-04-14T00:07:09.380Z,95312.91
2023-04-14T00:12:12.084Z,95292.50
2023-04-14T00:17:14.505Z,95325.53
2023-04-14T00:22:17.310Z,95296.28
2023-04-14T00:27:19.933Z,95292.19
2023-04-14T00:32:22.819Z,95308.69
2023-04-14T00:37:25.569Z,95325.78
2023-04-14T00:42:27.867Z,95298.97
2023-04-14T00:47:30.770Z,95307.03
2023-04-14T00:52:33.567Z,95324.28
2023-04-14T00:57:37.055Z,95299.75
2023-04-14T01:02:39.621Z,95303.16
2023-04-14T01:07:42.584Z,95316.75
2023-04-14T01:13:14.408Z,95300.72
2023-04-14T01:18:31.199Z,95310.53
2023-04-14T01:23:41.326Z,95316.75
2023-04-14T01:28:50.196Z,95322.44
2023-04-14T01:34:15.662Z,95283.44
2023-04-14T01:39:21.815Z,95279.09
2023-04-14T01:44:26.227Z,95292.09
2023-04-14T01:49:34.612Z,95292.78
2023-04-14T01:54:42.920Z,95275.69
2023-04-14T01:59:49.489Z,95282.53
2023-04-14T02:04:53.780Z,95271.22
2023-04-14T02:09:59.372Z,95293.69
2023-04-14T02:15:02.672Z,95286.41
2023-04-14T02:20:08.383Z,95286.22
2023-04-14T02:25:11.416Z,95281.47
2023-04-14T02:30:29.762Z,95298.97
2023-04-14T02:35:40.088Z,95263.91
2023-04-14T02:40:44.192Z,95233.66
2023-04-14T02:45:51.532Z,95227.28
2023-04-14T02:50:56.359Z,95263.66
2023-04-14T02:56:04.627Z,95271.81
2023-04-14T03:01:12.564Z,95268.78
2023-04-14T03:06:16.529Z,95276.19
2023-04-14T03:11:20.522Z,95279.19
2023-04-14T03:16:25.999Z,95246.84
2023-04-14T03:21:30.709Z,95288.75
2023-04-14T03:26:37.316Z,95261.41
2023-04-14T03:31:44.550Z,95264.41
2023-04-14T03:36:49.613Z,95244.66
2023-04-14T03:41:55.304Z,95285.03
2023-04-14T03:47:02.582Z,95259.06
2023-04-14T03:52:13.346Z,95266.00
2023-04-14T03:57:19.423Z,95271.53
2023-04-14T04:02:24.464Z,95270.63
2023-04-14T04:07:28.772Z,95267.09
2023-04-14T04:12:32.981Z,95269.78
2023-04-14T04:17:39.097Z,95238.09
2023-04-14T04:22:45.730Z,95238.47
2023-04-14T04:27:50.038Z,95260.91
2023-04-14T04:32:53.797Z,95261.06
2023-04-14T04:37:58.443Z,95246.00
2023-04-14T04:43:01.081Z,95254.25
2023-04-14T04:48:04.795Z,95270.94
2023-04-14T04:53:07.450Z,95263.44
2023-04-14T04:58:11.072Z,95236.47
2023-04-14T05:03:13.752Z,95225.16
2023-04-14T05:08:15.980Z,95225.31
2023-04-14T05:13:18.522Z,95189.19
2023-04-14T05:18:20.965Z,95228.88
2023-04-14T05:23:23.711Z,95196.63
2023-04-14T05:28:26.123Z,95214.47
2023-04-14T05:33:29.053Z,95196.03
2023-04-14T05:38:31.782Z,95186.03
2023-04-14T05:43:34.519Z,95153.22
2023-04-14T05:48:38.389Z,95157.63
2023-04-14T05:53:41.212Z,95151.38
2023-04-14T05:58:43.761Z,95129.53
2023-04-14T06:03:46.561Z,95140.81
2023-04-14T06:08:49.359Z,95126.16
2023-04-14T06:13:51.477Z,95093.50
2023-04-14T06:18:54.261Z,95116.84
2023-04-14T06:23:56.769Z,95100.56
2023-04-14T06:29:01.064Z,95093.78
2023-04-14T06:34:03.612Z,95101.66
2023-04-14T06:39:06.221Z,95102.78
2023-04-14T06:44:08.766Z,95088.06
2023-04-14T06:49:12.268Z,95077.66
2023-04-14T06:54:14.968Z,95066.13
2023-04-14T06:59:17.720Z,95044.09
2023-04-14T07:05:03.912Z,95035.78
2023-04-14T07:10:07.366Z,95112.38
2023-04-14T07:15:10.206Z,95090.88
2023-04-14T07:20:12.911Z,95106.44
2023-04-14T07:25:15.726Z,95108.47
2023-04-14T07:30:18.660Z,95107.63
2023-04-14T07:35:20.962Z,95110.31
2023-04-14T07:40:23.540Z,95098.41
2023-04-14T07:45:26.133Z,95110.13
2023-04-14T07:50:28.885Z,95074.81
2023-04-14T07:55:31.225Z,95086.16
2023-04-14T08:00:34.032Z,95092.22
2023-04-14T08:05:37.218Z,95067.03
2023-04-14T08:10:39.899Z,95053.22
2023-04-14T08:15:45.698Z,95075.34
2023-04-14T08:20:58.827Z,95073.41
2023-04-14T08:26:05.179Z,95048.34
2023-04-14T08:31:11.035Z,95041.91
2023-04-14T08:59:30.301Z,95079.91
2023-04-14T09:04:35.675Z,95083.31
2023-04-14T09:09:39.480Z,95077.25
2023-04-14T09:14:46.206Z,95068.84
2023-04-14T09:20:38.219Z,95088.34
2023-04-14T09:25:12.223Z,95079.53
2023-04-14T09:30:15.936Z,95127.97
2023-04-14T09:35:18.191Z,95151.06
2023-04-14T09:40:31.956Z,95137.69
2023-04-14T09:45:45.419Z,95217.41
2023-04-14T09:51:09.881Z,95225.16
2023-04-14T09:56:13.567Z,95227.81
2023-04-14T10:01:18.302Z,95197.31
2023-04-14T10:06:22.960Z,95248.50
2023-04-14T10:11:31.031Z,95228.47
2023-04-14T10:16:34.546Z,95268.13
2023-04-14T10:21:38.040Z,95286.69
2023-04-14T10:26:43.104Z,95276.88
2023-04-14T10:31:52.949Z,95249.97
2023-04-14T10:36:55.915Z,95293.47
2023-04-14T10:41:58.580Z,95253.09
2023-04-14T10:47:05.399Z,95268.44
2023-04-14T10:52:21.471Z,95303.41
2023-04-14T10:57:29.809Z,95274.41
2023-04-14T11:02:34.053Z,95264.25
2023-04-14T11:07:47.422Z,95249.88
2023-04-14T11:12:55.125Z,95276.75
2023-04-14T11:18:13.720Z,95248.84
2023-04-14T11:23:16.833Z,95263.81
2023-04-14T11:28:32.653Z,95263.97
2023-04-14T11:33:38.608Z,95277.25
2023-04-14T11:38:41.235Z,95250.06
2023-04-14T11:43:47.170Z,95212.56
2023-04-14T11:48:55.210Z,95207.91
2023-04-14T11:53:58.964Z,95211.50
2023-04-14T11:59:06.084Z,95189.66
2023-04-14T12:10:23.943Z,95184.59
2023-04-14T12:15:27.290Z,95166.03
2023-04-14T12:20:42.076Z,95193.00
2023-04-14T12:25:44.518Z,95143.06
2023-04-14T12:30:54.617Z,95160.66
2023-04-14T12:36:05.497Z,95161.19
2023-04-14T12:41:08.385Z,95137.88
2023-04-14T12:46:11.028Z,95131.69
2023-04-14T12:51:17.464Z,95150.78
2023-04-14T12:56:22.532Z,95166.44
2023-04-14T13:01:25.297Z,95150.19
2023-04-14T13:06:28.077Z,95158.69
2023-04-14T13:11:31.546Z,95159.59
2023-04-14T13:16:34.328Z,95150.09
2023-04-14T13:21:37.161Z,95152.00
2023-04-14T13:26:39.969Z,95173.00
2023-04-14T13:31:42.601Z,95132.56
2023-04-14T13:36:45.915Z,95135.75
2023-04-14T13:41:48.780Z,95161.97
2023-04-14T13:46:54.079Z,95143.03
2023-04-14T13:51:56.958Z,95135.66
2023-04-14T13:56:59.473Z,95168.75
2023-04-14T14:02:02.275Z,95156.59
2023-04-14T14:07:05.066Z,95155.78
2023-04-14T14:12:08.042Z,95169.53
2023-04-14T14:17:10.878Z,95163.47
2023-04-14T14:22:13.445Z,95137.72
2023-04-14T14:27:16.598Z,95145.06
2023-04-14T14:32:19.358Z,95170.97
2023-04-14T14:37:22.506Z,95188.28
2023-04-14T14:42:25.079Z,95202.75
2023-04-14T14:47:28.462Z,95233.28
2023-04-14T14:52:32.305Z,95252.78
2023-04-14T14:57:34.716Z,95269.03
2023-04-14T15:02:37.644Z,95300.94
2023-04-14T15:07:40.836Z,95252.50
2023-04-14T15:12:43.529Z,95297.63
2023-04-14T15:17:46.910Z,95311.84
2023-04-14T15:22:49.241Z,95334.25
2023-04-14T15:27:53.504Z,95295.41
2023-04-14T15:32:56.244Z,95326.63
2023-04-14T15:37:58.905Z,95328.59
2023-04-14T15:43:04.399Z,95302.53
2023-04-14T15:48:10.306Z,95328.94
2023-04-14T15:53:12.632Z,95348.44
2023-04-14T15:58:19.297Z,95355.53
2023-04-14T16:03:22.240Z,95349.50
2023-04-14T16:08:25.111Z,95393.66
2023-04-14T16:13:31.894Z,95368.69
2023-04-14T16:18:40.562Z,95372.00
2023-04-14T16:23:44.011Z,95400.84
2023-04-14T16:28:50.072Z,95404.13
2023-04-14T16:33:53.056Z,95451.16
2023-04-14T16:38:55.761Z,95427.56
2023-04-14T16:43:58.505Z,95444.16
2023-04-14T16:49:01.730Z,95437.34
2023-04-14T16:54:04.813Z,95450.09
2023-04-14T16:59:07.792Z,95453.53
2023-04-14T17:04:10.587Z,95429.41
2023-04-14T17:09:14.045Z,95453.13
2023-04-14T17:14:17.039Z,95439.28
2023-04-14T17:19:19.913Z,95459.06
2023-04-14T17:24:23.404Z,95466.25
2023-04-14T17:29:26.143Z,95443.81
2023-04-14T17:34:29.663Z,95482.84
2023-04-14T17:39:33.015Z,95499.69
2023-04-14T17:44:41.739Z,95467.91
2023-04-14T17:49:44.581Z,95477.69
2023-04-14T17:54:56.109Z,95492.25
2023-04-14T17:59:59.279Z,95521.09
2023-04-14T18:05:01.545Z,95522.03
2023-04-14T18:10:05.050Z,95559.66
2023-04-14T18:15:07.645Z,95533.47
2023-04-14T18:20:14.760Z,95530.31
2023-04-14T18:25:18.732Z,95543.44
2023-04-14T18:30:23.202Z,95532.31
2023-04-14T18:35:25.954Z,95532.66
2023-04-14T18:40:28.569Z,95524.44
2023-04-14T18:45:31.166Z,95530.00
2023-04-14T18:50:34.033Z,95503.13
2023-04-14T18:55:43.346Z,95496.34
2023-04-14T19:00:51.815Z,95508.63
2023-04-14T19:05:55.755Z,95513.25
2023-04-14T19:10:59.567Z,95499.19
2023-04-14T19:16:06.693Z,95518.81
2023-04-14T19:21:09.269Z,95520.97
2023-04-14T19:26:13.751Z,95524.22
2023-04-14T19:31:21.538Z,95534.16
2023-04-14T19:36:24.423Z,95532.50
2023-04-14T19:41:27.225Z,95488.81
2023-04-14T19:46:32.469Z,95484.97
2023-04-14T19:51:35.213Z,95489.91
2023-04-14T19:56:38.254Z,95502.72
2023-04-14T20:01:41.266Z,95500.63
2023-04-14T20:06:44.025Z,95502.81
2023-04-14T20:18:31.023Z,95502.69
2023-04-14T20:23:33.882Z,95491.28
2023-04-14T20:28:39.763Z,95509.28
2023-04-14T20:33:46.954Z,95506.66
2023-04-14T20:38:50.041Z,95507.00
2023-04-14T20:43:52.688Z,95474.53
2023-04-14T20:48:58.089Z,95492.19
2023-04-14T20:54:05.210Z,95491.88
2023-04-14T20:59:07.487Z,95497.63
2023-04-14T21:04:11.459Z,95493.00
2023-04-14T21:09:14.761Z,95487.69
2023-04-14T21:15:41.638Z,95500.25
2023-04-14T21:19:42.474Z,95508.72
2023-04-14T21:24:48.960Z,95496.13
2023-04-14T21:29:56.208Z,95498.78
2023-04-14T21:35:02.448Z,95476.28
2023-04-14T21:40:09.634Z,95517.19
2023-04-14T21:45:12.444Z,95475.78
2023-04-14T21:50:15.191Z,95576.91
2023-04-14T21:55:20.290Z,95549.19
2023-04-14T22:00:24.311Z,95484.53
2023-04-14T22:05:27.770Z,95490.84
2023-04-14T22:10:32.481Z,95511.06
2023-04-14T22:15:35.205Z,95497.56
2023-04-14T22:20:38.610Z,95476.84
2023-04-14T22:25:41.584Z,95412.81
2023-04-14T22:30:44.421Z,95439.56
2023-04-14T22:35:47.097Z,95424.19
2023-04-14T22:40:51.787Z,95450.44
2023-04-14T22:45:55.245Z,95442.91
2023-04-14T22:50:58.138Z,95463.47
2023-04-14T22:56:01.024Z,95480.25
2023-04-14T23:01:11.989Z,95466.09
2023-04-14T23:06:23.370Z,95411.94
2023-04-14T23:11:26.179Z,95412.00
2023-04-14T23:16:29.038Z,95427.94
2023-04-14T23:21:31.802Z,95449.22
2023-04-14T23:26:34.865Z,95446.72
2023-04-14T23:31:37.585Z,95421.81
2023-04-14T23:36:39.938Z,95450.13
2023-04-14T23:41:42.804Z,95431.13
2023-04-14T23:46:45.545Z,95452.59
2023-04-14T23:51:48.293Z,95427.72
2023-04-14T23:56:50.442Z,95384.19
